createdAt,value
2017-10-19T00:01:17.460Z,92.83
2017-10-19T00:03:43.730Z,92.74
2017-10-19T00:06:10.013Z,92.81
2017-10-19T00:08:36.302Z,92.91
2017-10-19T00:11:02.581Z,92.93
2017-10-19T00:13:28.840Z,93.11
2017-10-19T00:15:55.111Z,93.20
2017-10-19T00:18:21.380Z,93.06
2017-10-19T00:20:47.812Z,93.09
2017-10-19T00:23:14.094Z,92.83
2017-10-19T00:25:40.344Z,92.92
2017-10-19T00:28:06.617Z,93.03
2017-10-19T00:30:32.884Z,93.04
2017-10-19T00:32:59.157Z,93.11
2017-10-19T00:35:25.425Z,93.12
2017-10-19T00:37:51.739Z,92.61
2017-10-19T00:40:18.023Z,92.61
2017-10-19T00:42:44.291Z,92.63
2017-10-19T00:45:10.551Z,92.57
2017-10-19T00:47:36.808Z,92.35
2017-10-19T00:50:03.129Z,92.35
2017-10-19T00:52:29.391Z,92.48
2017-10-19T00:54:55.698Z,92.69
2017-10-19T00:57:21.963Z,93.07
2017-10-19T00:59:48.241Z,92.91
2017-10-19T01:02:14.519Z,92.98
2017-10-19T01:04:40.784Z,92.94
2017-10-19T01:07:07.067Z,93.38
2017-10-19T01:09:33.343Z,93.36
2017-10-19T01:11:59.622Z,93.46
2017-10-19T01:14:25.891Z,93.64
2017-10-19T01:16:52.164Z,93.53
2017-10-19T01:19:18.443Z,93.81
2017-10-19T01:21:44.716Z,94.03
2017-10-19T01:24:10.993Z,93.86
2017-10-19T01:26:37.397Z,94.11
2017-10-19T01:29:03.710Z,94.09
2017-10-19T01:31:30.002Z,94.13
2017-10-19T01:33:56.269Z,93.93
2017-10-19T01:36:22.525Z,93.45
2017-10-19T01:38:48.791Z,93.29
2017-10-19T01:41:15.072Z,93.21
2017-10-19T01:43:41.369Z,93.06
2017-10-19T01:46:07.647Z,93.48
2017-10-19T01:48:33.915Z,93.88
2017-10-19T01:51:00.248Z,93.92
2017-10-19T01:53:26.529Z,93.80
2017-10-19T01:55:52.811Z,93.98
2017-10-19T01:58:19.106Z,94.05
2017-10-19T02:00:45.379Z,94.18
2017-10-19T02:03:11.659Z,94.23
2017-10-19T02:05:37.951Z,93.13
2017-10-19T02:08:04.264Z,92.59
2017-10-19T02:10:30.563Z,92.98
2017-10-19T02:12:56.841Z,92.69
2017-10-19T02:15:23.131Z,92.26
2017-10-19T02:17:49.398Z,91.99
2017-10-19T02:20:15.662Z,92.03
2017-10-19T02:22:41.952Z,92.23
2017-10-19T02:25:08.236Z,92.27
2017-10-19T02:27:34.504Z,92.35
2017-10-19T02:30:00.816Z,92.69
2017-10-19T02:32:27.103Z,92.21
2017-10-19T02:34:53.399Z,92.37
2017-10-19T02:37:19.689Z,92.52
2017-10-19T02:39:45.965Z,92.96
2017-10-19T02:42:12.240Z,92.87
2017-10-19T02:44:38.529Z,92.65
2017-10-19T02:47:04.804Z,92.78
2017-10-19T02:49:31.092Z,92.54
2017-10-19T02:51:57.362Z,92.27
2017-10-19T02:54:23.671Z,92.49
2017-10-19T02:56:49.919Z,92.53
2017-10-19T02:59:16.180Z,92.10
2017-10-19T03:01:42.459Z,91.97
2017-10-19T03:04:08.732Z,92.32
2017-10-19T03:06:35.015Z,92.15
2017-10-19T03:09:01.287Z,91.94
2017-10-19T03:11:27.597Z,92.12
2017-10-19T03:13:53.874Z,92.36
2017-10-19T03:16:20.157Z,92.30
2017-10-19T03:18:46.610Z,92.66
2017-10-19T03:21:12.890Z,92.41
2017-10-19T03:23:39.182Z,92.31
2017-10-19T03:26:05.489Z,92.15
2017-10-19T03:28:31.814Z,92.36
2017-10-19T03:30:58.087Z,92.58
2017-10-19T03:33:24.368Z,92.37
2017-10-19T03:35:50.656Z,92.59
2017-10-19T03:38:16.949Z,92.57
2017-10-19T03:40:43.266Z,92.67
2017-10-19T03:43:09.533Z,92.57
2017-10-19T03:45:35.809Z,92.31
2017-10-19T03:48:02.117Z,92.13
2017-10-19T03:50:28.398Z,92.15
2017-10-19T03:52:54.703Z,92.19
2017-10-19T03:55:21.042Z,92.60
2017-10-19T03:57:47.321Z,92.74
2017-10-19T04:00:13.577Z,92.86
2017-10-19T04:02:39.850Z,92.41
2017-10-19T04:05:06.170Z,92.26
2017-10-19T04:07:32.549Z,92.69
2017-10-19T04:09:58.819Z,92.66
2017-10-19T04:12:25.103Z,92.73
2017-10-19T04:14:51.376Z,92.60
2017-10-19T04:17:17.662Z,92.66
2017-10-19T04:19:43.929Z,92.96
2017-10-19T04:22:10.192Z,92.98
2017-10-19T04:24:36.469Z,92.99
2017-10-19T04:27:02.742Z,93.35
2017-10-19T04:29:29.066Z,93.43
2017-10-19T04:31:55.319Z,93.57
2017-10-19T04:34:21.589Z,93.92
2017-10-19T04:36:47.861Z,93.38
2017-10-19T04:39:14.142Z,93.16
2017-10-19T04:41:40.471Z,93.33
2017-10-19T04:44:06.736Z,93.35
2017-10-19T04:46:33.023Z,93.15
2017-10-19T04:48:59.335Z,92.80
2017-10-19T04:51:25.603Z,92.54
2017-10-19T04:53:51.895Z,92.21
2017-10-19T04:56:18.169Z,91.52
2017-10-19T04:58:44.493Z,90.78
2017-10-19T05:01:10.784Z,87.63
2017-10-19T05:03:37.073Z,81.96
2017-10-19T05:06:03.357Z,75.51
2017-10-19T05:10:55.712Z,67.78
2017-10-19T05:13:21.996Z,65.90
2017-10-19T05:15:48.272Z,64.00
2017-10-19T05:18:14.557Z,61.61
2017-10-19T05:20:40.818Z,59.74
2017-10-19T05:23:07.064Z,57.99
2017-10-19T05:25:33.349Z,56.89
2017-10-19T05:27:59.607Z,58.06
2017-10-19T05:30:25.988Z,57.90
2017-10-19T05:32:52.251Z,57.95
2017-10-19T05:35:18.531Z,57.80
2017-10-19T05:37:44.786Z,58.19
2017-10-19T05:40:11.049Z,58.69
2017-10-19T05:42:37.308Z,59.67
2017-10-19T05:45:03.588Z,59.07
2017-10-19T05:47:29.882Z,60.00
2017-10-19T05:49:56.144Z,59.99
2017-10-19T05:52:22.409Z,58.28
2017-10-19T05:54:48.662Z,56.67
2017-10-19T05:57:14.974Z,54.14
2017-10-19T05:59:41.229Z,51.70
2017-10-19T06:02:07.499Z,48.57
2017-10-19T06:04:33.798Z,46.41
2017-10-19T06:07:00.056Z,49.90
2017-10-19T06:09:26.491Z,48.99
2017-10-19T06:11:52.750Z,49.71
2017-10-19T06:14:19.026Z,50.11
2017-10-19T06:16:45.342Z,47.07
2017-10-19T06:19:11.595Z,45.63
2017-10-19T06:21:37.860Z,42.68
2017-10-19T06:24:04.156Z,43.65
2017-10-19T06:26:30.418Z,43.30
2017-10-19T06:28:56.692Z,44.02
2017-10-19T06:31:23.015Z,44.98
2017-10-19T06:33:49.275Z,44.83
2017-10-19T06:36:15.528Z,45.01
2017-10-19T06:38:41.845Z,44.81
2017-10-19T06:41:08.125Z,45.24
2017-10-19T06:43:34.397Z,46.40
2017-10-19T06:46:00.715Z,46.98
2017-10-19T06:48:26.979Z,47.58
2017-10-19T06:50:53.240Z,47.64
2017-10-19T06:53:19.549Z,48.51
2017-10-19T06:55:45.807Z,48.14
2017-10-19T06:58:12.077Z,48.99
2017-10-19T07:00:38.379Z,49.27
2017-10-19T07:03:04.654Z,48.04
2017-10-19T07:05:30.939Z,48.53
2017-10-19T07:07:57.251Z,46.81
2017-10-19T07:10:23.526Z,48.27
2017-10-19T07:12:49.811Z,47.23
2017-10-19T07:15:16.126Z,46.08
2017-10-19T07:17:42.411Z,45.13
2017-10-19T07:20:08.678Z,43.83
2017-10-19T07:22:34.991Z,44.03
2017-10-19T07:25:01.263Z,43.85
2017-10-19T07:27:27.528Z,40.27
2017-10-19T07:29:53.840Z,39.90
2017-10-19T07:32:20.118Z,39.30
2017-10-19T07:34:46.400Z,39.33
2017-10-19T07:37:12.777Z,37.99
2017-10-19T07:39:39.052Z,38.40
2017-10-19T07:42:05.337Z,37.27
2017-10-19T07:44:31.634Z,37.75
2017-10-19T07:46:57.922Z,39.10
2017-10-19T07:49:24.219Z,40.69
2017-10-19T07:51:50.534Z,39.72
2017-10-19T07:54:16.802Z,38.62
2017-10-19T07:56:43.081Z,37.82
2017-10-19T07:59:09.395Z,38.30
2017-10-19T08:01:35.681Z,39.17
2017-10-19T08:04:01.975Z,38.52
2017-10-19T08:06:28.312Z,37.05
2017-10-19T08:08:54.602Z,37.46
2017-10-19T08:11:20.879Z,38.48
2017-10-19T08:13:47.189Z,38.98
2017-10-19T08:16:13.484Z,38.28
2017-10-19T08:18:39.782Z,38.88
2017-10-19T08:21:06.126Z,37.56
2017-10-19T08:23:32.415Z,36.76
2017-10-19T08:25:58.703Z,35.66
2017-10-19T08:28:25.035Z,35.22
2017-10-19T08:30:51.325Z,34.12
2017-10-19T08:33:17.625Z,33.26
2017-10-19T08:35:43.935Z,32.51
2017-10-19T08:38:10.219Z,32.19
2017-10-19T08:40:36.505Z,31.51
2017-10-19T08:43:02.820Z,30.69
2017-10-19T08:45:29.084Z,30.65
2017-10-19T08:47:55.351Z,30.81
2017-10-19T08:50:21.662Z,30.53
2017-10-19T08:52:48.122Z,30.21
2017-10-19T08:55:14.417Z,31.89
2017-10-19T08:57:40.851Z,31.26
2017-10-19T09:00:07.114Z,32.19
2017-10-19T09:02:33.436Z,31.28
2017-10-19T09:04:59.838Z,30.52
2017-10-19T09:07:26.303Z,29.97
2017-10-19T09:09:52.576Z,29.86
2017-10-19T09:12:18.857Z,30.59
2017-10-19T09:14:45.157Z,29.70
2017-10-19T09:17:11.636Z,30.97
2017-10-19T09:19:37.898Z,28.09
2017-10-19T09:22:04.171Z,28.47
2017-10-19T09:24:30.446Z,28.15
2017-10-19T09:26:56.742Z,27.28
2017-10-19T09:29:23.028Z,26.24
2017-10-19T09:31:49.305Z,26.49
2017-10-19T09:34:15.616Z,27.99
2017-10-19T09:36:41.887Z,26.97
2017-10-19T09:39:08.207Z,25.93
2017-10-19T09:41:34.470Z,22.18
2017-10-19T09:44:00.755Z,22.71
2017-10-19T09:46:27.082Z,21.32
2017-10-19T09:48:53.362Z,20.65
2017-10-19T09:51:19.634Z,22.22
2017-10-19T09:53:45.939Z,22.21
2017-10-19T09:56:12.325Z,22.67
2017-10-19T09:58:38.767Z,20.32
2017-10-19T10:01:05.049Z,18.80
2017-10-19T10:03:31.344Z,18.85
2017-10-19T10:05:57.676Z,18.51
2017-10-19T10:08:23.963Z,19.42
2017-10-19T10:10:50.231Z,19.40
2017-10-19T10:13:16.534Z,20.34
2017-10-19T10:15:42.801Z,20.36
2017-10-19T10:18:09.091Z,20.47
2017-10-19T10:20:35.363Z,20.30
2017-10-19T10:23:01.626Z,20.35
2017-10-19T10:25:27.970Z,20.76
2017-10-19T10:27:54.240Z,20.44
2017-10-19T10:30:20.518Z,19.09
2017-10-19T10:32:46.812Z,18.65
2017-10-19T10:35:13.083Z,18.59
2017-10-19T10:37:39.362Z,18.57
2017-10-19T10:40:05.645Z,18.26
2017-10-19T10:42:31.916Z,18.62
2017-10-19T10:44:58.193Z,19.53
2017-10-19T10:47:24.475Z,18.51
2017-10-19T10:49:50.738Z,18.69
2017-10-19T10:52:17.194Z,18.25
2017-10-19T10:54:43.459Z,18.95
2017-10-19T10:57:09.736Z,19.57
2017-10-19T10:59:36.068Z,18.89
2017-10-19T11:02:02.334Z,19.33
2017-10-19T11:04:28.613Z,19.67
2017-10-19T11:06:54.926Z,20.61
2017-10-19T11:09:21.203Z,21.42
2017-10-19T11:11:47.473Z,22.19
2017-10-19T11:14:13.742Z,21.33
2017-10-19T11:16:40.011Z,21.66
2017-10-19T11:19:06.268Z,20.45
2017-10-19T11:21:32.764Z,21.02
2017-10-19T11:23:59.027Z,20.92
2017-10-19T11:26:25.287Z,21.24
2017-10-19T11:28:51.562Z,21.07
2017-10-19T11:31:17.840Z,21.47
2017-10-19T11:33:44.103Z,20.46
2017-10-19T11:36:10.420Z,19.64
2017-10-19T11:38:36.684Z,19.31
2017-10-19T11:41:02.993Z,21.44
2017-10-19T11:43:29.251Z,21.87
2017-10-19T11:45:55.517Z,21.27
2017-10-19T11:48:21.799Z,22.53
2017-10-19T11:50:48.101Z,21.66
2017-10-19T11:53:14.525Z,21.11
2017-10-19T11:55:40.786Z,19.75
2017-10-19T11:58:07.058Z,19.95
2017-10-19T12:00:33.417Z,19.17
2017-10-19T12:02:59.766Z,20.01
2017-10-19T12:05:26.037Z,21.20
2017-10-19T12:07:52.354Z,21.30
2017-10-19T12:10:18.626Z,19.13
2017-10-19T12:12:44.883Z,17.93
2017-10-19T12:17:42.572Z,18.69
2017-10-19T12:20:08.835Z,18.66
2017-10-19T12:22:35.455Z,18.64
2017-10-19T12:25:01.720Z,17.87
2017-10-19T12:27:27.993Z,18.31
2017-10-19T12:29:54.297Z,17.46
2017-10-19T12:32:20.577Z,17.81
2017-10-19T12:34:46.834Z,18.92
2017-10-19T12:39:44.996Z,16.59
2017-10-19T12:42:11.258Z,16.54
2017-10-19T12:44:37.559Z,17.76
2017-10-19T12:47:03.862Z,18.90
2017-10-19T12:49:30.125Z,18.44
2017-10-19T12:51:56.384Z,17.65
2017-10-19T12:54:22.645Z,18.25
2017-10-19T12:56:48.935Z,19.11
2017-10-19T12:59:15.197Z,18.26
2017-10-19T13:01:41.505Z,17.81
2017-10-19T13:04:07.810Z,18.98
2017-10-19T13:06:34.059Z,17.45
2017-10-19T13:09:00.330Z,17.74
2017-10-19T13:11:26.638Z,16.64
2017-10-19T13:13:52.901Z,16.66
2017-10-19T13:16:19.171Z,16.85
2017-10-19T13:18:45.440Z,17.47
2017-10-19T13:21:11.704Z,16.53
2017-10-19T13:23:37.992Z,17.44
2017-10-19T13:26:04.247Z,17.29
2017-10-19T13:28:30.545Z,18.78
2017-10-19T13:30:56.837Z,20.10
2017-10-19T13:33:23.108Z,22.03
2017-10-19T13:35:49.371Z,23.42
2017-10-19T13:38:15.667Z,24.28
2017-10-19T13:40:41.923Z,25.60
2017-10-19T13:43:08.199Z,25.98
2017-10-19T13:45:34.453Z,26.99
2017-10-19T13:48:00.716Z,28.60
2017-10-19T13:50:27.014Z,29.46
2017-10-19T13:52:53.277Z,31.10
2017-10-19T13:55:19.544Z,33.46
2017-10-19T13:57:45.827Z,34.72
2017-10-19T14:00:12.082Z,35.94
2017-10-19T14:02:38.394Z,37.55
2017-10-19T14:05:04.664Z,38.95
2017-10-19T14:07:30.956Z,37.92
2017-10-19T14:09:57.252Z,39.61
2017-10-19T14:12:23.527Z,40.58
2017-10-19T14:14:50.178Z,43.64
2017-10-19T14:17:16.659Z,43.54
2017-10-19T14:19:43.210Z,43.91
2017-10-19T14:22:09.532Z,44.35
2017-10-19T14:24:35.804Z,44.61
2017-10-19T14:27:02.086Z,46.56
2017-10-19T14:29:28.367Z,46.89
2017-10-19T14:31:54.765Z,47.66
2017-10-19T14:34:21.045Z,49.04
2017-10-19T14:36:47.417Z,50.09
2017-10-19T14:39:13.720Z,50.15
2017-10-19T14:41:40.032Z,50.09
2017-10-19T14:44:06.292Z,51.15
2017-10-19T14:46:32.551Z,52.75
2017-10-19T14:48:58.839Z,54.30
2017-10-19T14:51:25.097Z,55.12
2017-10-19T14:53:51.386Z,54.99
2017-10-19T14:56:17.641Z,56.56
2017-10-19T14:58:43.890Z,56.44
2017-10-19T15:01:10.224Z,56.08
2017-10-19T15:03:36.507Z,57.33
2017-10-19T15:06:02.789Z,58.40
2017-10-19T15:08:29.044Z,59.80
2017-10-19T15:10:55.302Z,60.26
2017-10-19T15:13:25.453Z,62.10
2017-10-19T15:15:51.730Z,62.22
2017-10-19T15:18:17.987Z,60.39
2017-10-19T15:20:44.308Z,63.23
2017-10-19T15:23:10.573Z,64.28
2017-10-19T15:25:36.849Z,65.78
2017-10-19T15:28:03.120Z,65.52
2017-10-19T15:30:29.382Z,65.37
2017-10-19T15:32:55.638Z,66.27
2017-10-19T15:35:21.903Z,67.24
2017-10-19T15:37:48.161Z,67.27
2017-10-19T15:40:14.421Z,67.52
2017-10-19T15:42:40.676Z,68.52
2017-10-19T15:45:07.010Z,68.48
2017-10-19T15:47:33.266Z,69.66
2017-10-19T15:49:59.507Z,70.06
2017-10-19T15:52:25.752Z,70.30
2017-10-19T15:54:51.992Z,70.20
2017-10-19T15:57:18.294Z,70.79
2017-10-19T15:59:44.566Z,70.89
2017-10-19T16:02:10.813Z,69.93
2017-10-19T16:04:37.060Z,71.99
2017-10-19T16:07:03.312Z,72.76
2017-10-19T16:09:29.607Z,72.84
2017-10-19T16:11:55.864Z,72.24
2017-10-19T16:14:22.100Z,73.93
2017-10-19T16:16:48.336Z,74.63
2017-10-19T16:19:14.576Z,74.80
2017-10-19T16:21:40.828Z,74.86
2017-10-19T16:24:07.204Z,75.68
2017-10-19T16:26:33.446Z,76.08
2017-10-19T16:28:59.696Z,76.14
2017-10-19T16:31:25.949Z,75.73
2017-10-19T16:33:52.219Z,74.11
2017-10-19T16:36:18.468Z,75.69
2017-10-19T16:38:44.704Z,77.06
2017-10-19T16:41:11.124Z,77.40
2017-10-19T16:43:37.400Z,75.65
2017-10-19T16:46:03.676Z,79.76
2017-10-19T16:48:29.970Z,79.53
2017-10-19T16:50:56.269Z,79.61
2017-10-19T16:53:22.581Z,80.22
2017-10-19T16:55:48.867Z,79.18
2017-10-19T16:58:15.132Z,78.90
2017-10-19T17:00:41.415Z,79.72
2017-10-19T17:03:07.712Z,79.83
2017-10-19T17:05:34.019Z,79.33
2017-10-19T17:08:00.326Z,79.67
2017-10-19T17:10:26.606Z,80.47
2017-10-19T17:12:52.913Z,81.48
2017-10-19T17:15:19.147Z,81.56
2017-10-19T17:17:45.410Z,82.02
2017-10-19T17:20:11.798Z,82.25
2017-10-19T17:22:38.048Z,82.69
2017-10-19T17:25:04.332Z,82.83
2017-10-19T17:27:30.574Z,82.95
2017-10-19T17:29:56.834Z,83.12
2017-10-19T17:32:23.108Z,82.88
2017-10-19T17:34:49.372Z,83.29
2017-10-19T17:37:15.659Z,83.22
2017-10-19T17:39:41.926Z,83.21
2017-10-19T17:42:08.211Z,84.13
2017-10-19T17:44:34.463Z,83.61
2017-10-19T17:47:00.739Z,82.89
2017-10-19T17:49:27.051Z,82.85
2017-10-19T17:51:53.304Z,83.72
2017-10-19T17:54:19.554Z,84.81
2017-10-19T17:56:45.857Z,83.76
2017-10-19T17:59:12.104Z,83.88
2017-10-19T18:01:38.349Z,83.85
2017-10-19T18:04:04.728Z,83.58
2017-10-19T18:06:31.070Z,84.20
2017-10-19T18:08:57.368Z,84.31
2017-10-19T18:11:23.675Z,84.65
2017-10-19T18:13:49.923Z,84.37
2017-10-19T18:16:16.393Z,85.27
2017-10-19T18:18:42.675Z,85.72
2017-10-19T18:21:08.911Z,85.38
2017-10-19T18:23:35.191Z,85.42
2017-10-19T18:26:01.451Z,86.12
2017-10-19T18:28:27.854Z,86.35
2017-10-19T18:30:54.142Z,86.83
2017-10-19T18:33:20.387Z,86.48
2017-10-19T18:35:46.645Z,85.69
2017-10-19T18:38:12.901Z,86.12
2017-10-19T18:40:39.172Z,84.91
2017-10-19T18:43:05.475Z,86.20
2017-10-19T18:45:31.771Z,85.63
2017-10-19T18:47:58.037Z,86.39
2017-10-19T18:50:24.576Z,86.28
2017-10-19T18:52:50.831Z,85.61
2017-10-19T18:55:17.458Z,86.14
2017-10-19T18:57:44.105Z,85.88
2017-10-19T19:00:10.519Z,85.68
2017-10-19T19:02:36.983Z,86.83
2017-10-19T19:05:03.481Z,86.63
2017-10-19T19:07:30.006Z,86.58
2017-10-19T19:09:56.462Z,87.17
2017-10-19T19:12:23.107Z,87.38
2017-10-19T19:14:49.555Z,86.88
2017-10-19T19:17:15.823Z,87.15
2017-10-19T19:19:42.284Z,86.85
2017-10-19T19:22:08.552Z,87.14
2017-10-19T19:24:34.799Z,87.28
2017-10-19T19:27:01.059Z,87.35
2017-10-19T19:29:27.344Z,87.64
2017-10-19T19:31:53.638Z,87.94
2017-10-19T19:34:19.908Z,88.66
2017-10-19T19:36:46.393Z,87.69
2017-10-19T19:39:12.660Z,87.82
2017-10-19T19:41:38.913Z,88.37
2017-10-19T19:44:05.184Z,88.70
2017-10-19T19:46:31.448Z,88.86
2017-10-19T19:48:57.719Z,89.66
2017-10-19T19:51:23.983Z,88.49
2017-10-19T19:53:50.235Z,88.71
2017-10-19T19:56:16.518Z,88.52
2017-10-19T19:58:42.766Z,88.76
2017-10-19T20:01:09.024Z,89.93
2017-10-19T20:03:35.276Z,90.19
2017-10-19T20:06:01.532Z,89.76
2017-10-19T20:08:27.805Z,89.47
2017-10-19T20:10:54.069Z,89.28
2017-10-19T20:13:20.332Z,89.02
2017-10-19T20:15:46.572Z,89.70
2017-10-19T20:18:12.838Z,89.85
2017-10-19T20:20:39.143Z,89.78
2017-10-19T20:23:05.397Z,89.50
2017-10-19T20:25:31.645Z,89.37
2017-10-19T20:27:57.912Z,89.02
2017-10-19T20:30:24.163Z,89.47
2017-10-19T20:32:50.432Z,89.66
2017-10-19T20:35:16.682Z,89.71
2017-10-19T20:37:42.933Z,89.90
2017-10-19T20:40:09.196Z,90.62
2017-10-19T20:42:35.454Z,90.54
2017-10-19T20:45:01.758Z,90.36
2017-10-19T20:47:28.021Z,89.24
2017-10-19T20:49:54.291Z,89.69
2017-10-19T20:52:20.546Z,89.73
2017-10-19T20:54:46.997Z,89.60
2017-10-19T20:57:13.302Z,90.04
2017-10-19T20:59:39.623Z,90.11
2017-10-19T21:02:05.887Z,90.57
2017-10-19T21:04:32.129Z,91.12
2017-10-19T21:06:58.385Z,91.09
2017-10-19T21:09:24.636Z,91.28
2017-10-19T21:11:50.879Z,91.24
2017-10-19T21:14:17.116Z,91.02
2017-10-19T21:16:43.355Z,90.36
2017-10-19T21:19:09.605Z,90.41
2017-10-19T21:21:35.834Z,90.74
2017-10-19T21:24:02.109Z,90.58
2017-10-19T21:26:28.389Z,90.59
2017-10-19T21:28:54.687Z,90.72
2017-10-19T21:31:20.944Z,90.83
2017-10-19T21:33:47.250Z,91.10
2017-10-19T21:36:13.503Z,91.68
2017-10-19T21:38:39.761Z,92.13
2017-10-19T21:41:06.019Z,91.88
2017-10-19T21:43:32.356Z,92.00
2017-10-19T21:45:58.628Z,92.17
2017-10-19T21:48:24.882Z,92.38
2017-10-19T21:50:51.131Z,92.24
2017-10-19T21:53:17.394Z,91.74
2017-10-19T21:55:43.648Z,91.72
2017-10-19T21:58:09.946Z,91.75
2017-10-19T22:00:36.185Z,91.69
2017-10-19T22:03:02.439Z,92.23
2017-10-19T22:05:28.676Z,92.12
2017-10-19T22:07:55.048Z,92.14
2017-10-19T22:10:21.348Z,92.33
2017-10-19T22:12:47.602Z,92.54
2017-10-19T22:15:13.868Z,92.47
2017-10-19T22:17:40.058Z,93.02
2017-10-19T22:20:06.255Z,93.28
2017-10-19T22:22:32.468Z,93.47
2017-10-19T22:24:58.677Z,93.66
2017-10-19T22:27:24.900Z,93.51
2017-10-19T22:29:51.092Z,93.69
2017-10-19T22:32:17.276Z,93.84
2017-10-19T22:34:43.478Z,93.67
2017-10-19T22:37:09.682Z,93.58
2017-10-19T22:39:35.857Z,93.24
2017-10-19T22:42:02.066Z,93.43
2017-10-19T22:44:28.284Z,93.39
2017-10-19T22:46:54.500Z,93.75
2017-10-19T22:49:20.690Z,94.28
2017-10-19T22:51:46.866Z,94.11
2017-10-19T22:54:13.071Z,93.75
2017-10-19T22:56:39.264Z,93.54
2017-10-19T22:59:05.601Z,93.57
2017-10-19T23:01:31.819Z,93.78
2017-10-19T23:03:58.010Z,92.86
2017-10-19T23:06:24.208Z,92.72
2017-10-19T23:08:50.414Z,92.89
2017-10-19T23:11:16.770Z,92.75
2017-10-19T23:13:43.014Z,92.49
2017-10-19T23:16:09.257Z,92.94
2017-10-19T23:18:35.507Z,93.38
2017-10-19T23:21:01.765Z,93.27
2017-10-19T23:23:28.064Z,92.76
2017-10-19T23:25:54.350Z,92.69
2017-10-19T23:28:20.595Z,92.89
2017-10-19T23:30:47.022Z,93.02
2017-10-19T23:33:13.280Z,93.31
2017-10-19T23:35:39.574Z,93.26
2017-10-19T23:38:05.812Z,93.50
2017-10-19T23:40:32.070Z,93.37
2017-10-19T23:42:58.364Z,93.25
2017-10-19T23:45:24.617Z,93.32
2017-10-19T23:47:50.889Z,93.27
2017-10-19T23:50:17.167Z,93.62
2017-10-19T23:52:43.504Z,93.81
2017-10-19T23:55:09.756Z,94.43
2017-10-19T23:57:36.014Z,94.39
